Terminal Aerodrome Forecast
Issued by NWS Cleveland, OH

Home | Current Version | Previous Version | Graphics & Text | Print | Product List | Glossary Off
Versions: 1 2 3 4 5 6 7 8 9 10 11 12 13 14 15 16 17 18 19 20 21 22 23 24 25 26

924
FTUS41 KCLE 222346
TAFCAK
TAF
KCAK 222346Z 2300/2324 06006KT P6SM OVC100
     FM230300 06008KT P6SM OVC035
     FM230500 06008KT 5SM BR VCSH OVC025
     FM230800 05010KT 3SM -RA BR OVC008
     FM231100 04010KT 2SM -RA BR OVC004=

USA.gov is the U.S. government's official web portal to all federal, state and local government web resources and services.